N315SF KKPV-KOGD
Flight info
| Callsign | N315SF |
|---|---|
| Flight time | N/A |
| Altitude | 10000 |
| Route | JOSIF |
| Aircraft | C172/L-V/N |
Departure
| Time | N/A |
|---|---|
| Airport | KKPV |
Arrival
| Time | 2026-04-19 06:55 |
|---|---|
| Airport | Ogden Hinckley Airport (KOGD) |
| Time | Latitude | Longitude | Altitude | Speed | Heading |
|---|---|---|---|---|---|
| 2026-04-19 06:02 | 40.21914 | -111.71895 | 4498 ft | 0 kts | 259° |
| 2026-04-19 06:11 | 40.21907 | -111.71933 | 4498 ft | 10 kts | 256° |
| 2026-04-19 06:11 | 40.21824 | -111.71970 | 4498 ft | 18 kts | 162° |
| 2026-04-19 06:11 | 40.21702 | -111.71858 | 4498 ft | 26 kts | 147° |
| 2026-04-19 06:12 | 40.21405 | -111.71595 | 4499 ft | 25 kts | 146° |
| 2026-04-19 06:12 | 40.21265 | -111.71472 | 4497 ft | 23 kts | 146° |
| 2026-04-19 06:12 | 40.21156 | -111.71391 | 4497 ft | 11 kts | 179° |
| 2026-04-19 06:12 | 40.21124 | -111.71420 | 4497 ft | 0 kts | 240° |
| 2026-04-19 06:16 | 40.21111 | -111.71446 | 4495 ft | 11 kts | 234° |
| 2026-04-19 06:16 | 40.21108 | -111.71546 | 4495 ft | 17 kts | 315° |
| 2026-04-19 06:17 | 40.21276 | -111.71701 | 4496 ft | 47 kts | 326° |
| 2026-04-19 06:17 | 40.21640 | -111.72026 | 4501 ft | 78 kts | 325° |
| 2026-04-19 06:17 | 40.22099 | -111.72488 | 4574 ft | 88 kts | 317° |
| 2026-04-19 06:17 | 40.22552 | -111.73014 | 4754 ft | 86 kts | 320° |
| 2026-04-19 06:18 | 40.23014 | -111.73518 | 4906 ft | 86 kts | 321° |
| 2026-04-19 06:18 | 40.23481 | -111.74014 | 5061 ft | 86 kts | 322° |
| 2026-04-19 06:18 | 40.23969 | -111.74460 | 5207 ft | 86 kts | 328° |
| 2026-04-19 06:18 | 40.24463 | -111.74894 | 5360 ft | 85 kts | 327° |
| 2026-04-19 06:19 | 40.24959 | -111.75326 | 5525 ft | 86 kts | 328° |
| 2026-04-19 06:19 | 40.25460 | -111.75762 | 5685 ft | 87 kts | 329° |
| 2026-04-19 06:19 | 40.25971 | -111.76205 | 5832 ft | 89 kts | 329° |
| 2026-04-19 06:19 | 40.26493 | -111.76658 | 5976 ft | 91 kts | 329° |
| 2026-04-19 06:20 | 40.27024 | -111.77117 | 6108 ft | 94 kts | 330° |
| 2026-04-19 06:20 | 40.27569 | -111.77589 | 6271 ft | 94 kts | 330° |
| 2026-04-19 06:20 | 40.28124 | -111.78069 | 6406 ft | 96 kts | 330° |
| 2026-04-19 06:20 | 40.28677 | -111.78549 | 6570 ft | 95 kts | 329° |
| 2026-04-19 06:21 | 40.29267 | -111.78933 | 6709 ft | 95 kts | 341° |
| 2026-04-19 06:21 | 40.29874 | -111.79290 | 6834 ft | 96 kts | 340° |
| 2026-04-19 06:21 | 40.30484 | -111.79653 | 6954 ft | 96 kts | 339° |
| 2026-04-19 06:21 | 40.31097 | -111.80020 | 7078 ft | 97 kts | 339° |
| 2026-04-19 06:22 | 40.31716 | -111.80395 | 7187 ft | 98 kts | 338° |
| 2026-04-19 06:22 | 40.32333 | -111.80769 | 7321 ft | 97 kts | 338° |
| 2026-04-19 06:22 | 40.32956 | -111.81146 | 7433 ft | 99 kts | 337° |
| 2026-04-19 06:22 | 40.33581 | -111.81525 | 7574 ft | 98 kts | 336° |
| 2026-04-19 06:23 | 40.34202 | -111.81902 | 7691 ft | 99 kts | 336° |
| 2026-04-19 06:23 | 40.34828 | -111.82283 | 7808 ft | 99 kts | 335° |
| 2026-04-19 06:23 | 40.35455 | -111.82664 | 7921 ft | 99 kts | 334° |
| 2026-04-19 06:23 | 40.36082 | -111.83046 | 8024 ft | 99 kts | 334° |
| 2026-04-19 06:24 | 40.36711 | -111.83428 | 8143 ft | 99 kts | 334° |
| 2026-04-19 06:24 | 40.37329 | -111.83805 | 8271 ft | 99 kts | 332° |
| 2026-04-19 06:24 | 40.37957 | -111.84187 | 8392 ft | 99 kts | 333° |
| 2026-04-19 06:24 | 40.38583 | -111.84567 | 8517 ft | 99 kts | 332° |
| 2026-04-19 06:25 | 40.39206 | -111.84947 | 8626 ft | 99 kts | 332° |
| 2026-04-19 06:25 | 40.39833 | -111.85330 | 8748 ft | 99 kts | 332° |
| 2026-04-19 06:25 | 40.40460 | -111.85712 | 8850 ft | 100 kts | 330° |
| 2026-04-19 06:25 | 40.41088 | -111.86094 | 8972 ft | 99 kts | 330° |
| 2026-04-19 06:26 | 40.41716 | -111.86476 | 9086 ft | 100 kts | 329° |
| 2026-04-19 06:26 | 40.42345 | -111.86859 | 9194 ft | 99 kts | 330° |
| 2026-04-19 06:26 | 40.42973 | -111.87242 | 9314 ft | 100 kts | 329° |
| 2026-04-19 06:26 | 40.43602 | -111.87626 | 9426 ft | 100 kts | 329° |
| 2026-04-19 06:27 | 40.44232 | -111.88010 | 9554 ft | 100 kts | 328° |
| 2026-04-19 06:27 | 40.44857 | -111.88391 | 9666 ft | 101 kts | 328° |
| 2026-04-19 06:27 | 40.45490 | -111.88776 | 9793 ft | 100 kts | 328° |
| 2026-04-19 06:27 | 40.46121 | -111.89162 | 9921 ft | 101 kts | 328° |
| 2026-04-19 06:28 | 40.46758 | -111.89551 | 10031 ft | 101 kts | 329° |
| 2026-04-19 06:28 | 40.47395 | -111.89939 | 10131 ft | 100 kts | 328° |
| 2026-04-19 06:28 | 40.48032 | -111.90329 | 10180 ft | 104 kts | 328° |
| 2026-04-19 06:28 | 40.48714 | -111.90747 | 10193 ft | 112 kts | 329° |
| 2026-04-19 06:29 | 40.49440 | -111.91187 | 10187 ft | 117 kts | 329° |
| 2026-04-19 06:29 | 40.50187 | -111.91641 | 10185 ft | 119 kts | 329° |
| 2026-04-19 06:29 | 40.50950 | -111.92106 | 10181 ft | 121 kts | 330° |
| 2026-04-19 06:29 | 40.51717 | -111.92574 | 10183 ft | 122 kts | 329° |
| 2026-04-19 06:30 | 40.52488 | -111.93046 | 10182 ft | 123 kts | 329° |
| 2026-04-19 06:30 | 40.53261 | -111.93519 | 10181 ft | 123 kts | 329° |
| 2026-04-19 06:30 | 40.54022 | -111.93986 | 10182 ft | 122 kts | 329° |
| 2026-04-19 06:30 | 40.54796 | -111.94461 | 10182 ft | 122 kts | 329° |
| 2026-04-19 06:31 | 40.55567 | -111.94933 | 10182 ft | 122 kts | 329° |
| 2026-04-19 06:31 | 40.56339 | -111.95407 | 10179 ft | 122 kts | 329° |
| 2026-04-19 06:31 | 40.57111 | -111.95880 | 10179 ft | 122 kts | 329° |
| 2026-04-19 06:31 | 40.57883 | -111.96354 | 10180 ft | 123 kts | 329° |
| 2026-04-19 06:32 | 40.58656 | -111.96827 | 10180 ft | 122 kts | 329° |
| 2026-04-19 06:32 | 40.59425 | -111.97299 | 10181 ft | 122 kts | 329° |
| 2026-04-19 06:32 | 40.60196 | -111.97772 | 10177 ft | 122 kts | 328° |
| 2026-04-19 06:32 | 40.60969 | -111.98246 | 10181 ft | 122 kts | 329° |
| 2026-04-19 06:33 | 40.61741 | -111.98720 | 10182 ft | 122 kts | 329° |
| 2026-04-19 06:33 | 40.62499 | -111.99185 | 10180 ft | 122 kts | 328° |
| 2026-04-19 06:33 | 40.63267 | -111.99657 | 10182 ft | 122 kts | 328° |
| 2026-04-19 06:33 | 40.64039 | -112.00131 | 10179 ft | 122 kts | 328° |
| 2026-04-19 06:34 | 40.64810 | -112.00604 | 10181 ft | 122 kts | 328° |
| 2026-04-19 06:34 | 40.65583 | -112.01079 | 10181 ft | 122 kts | 328° |
| 2026-04-19 06:34 | 40.66353 | -112.01552 | 10182 ft | 122 kts | 328° |
| 2026-04-19 06:34 | 40.67127 | -112.02028 | 10180 ft | 123 kts | 328° |
| 2026-04-19 06:35 | 40.67902 | -112.02504 | 10179 ft | 123 kts | 328° |
| 2026-04-19 06:35 | 40.68676 | -112.02980 | 10179 ft | 123 kts | 328° |
| 2026-04-19 06:35 | 40.69449 | -112.03454 | 10182 ft | 123 kts | 328° |
| 2026-04-19 06:35 | 40.70225 | -112.03929 | 10180 ft | 123 kts | 328° |
| 2026-04-19 06:36 | 40.71000 | -112.04408 | 10184 ft | 123 kts | 328° |
| 2026-04-19 06:36 | 40.71776 | -112.04886 | 10181 ft | 123 kts | 328° |
| 2026-04-19 06:36 | 40.72551 | -112.05364 | 10182 ft | 123 kts | 328° |
| 2026-04-19 06:36 | 40.73388 | -112.05629 | 10183 ft | 130 kts | 4° |
| 2026-04-19 06:37 | 40.74235 | -112.05182 | 10183 ft | 133 kts | 26° |
| 2026-04-19 06:37 | 40.75065 | -112.04641 | 10180 ft | 133 kts | 25° |
| 2026-04-19 06:37 | 40.75873 | -112.04117 | 10184 ft | 133 kts | 25° |
| 2026-04-19 06:37 | 40.76705 | -112.03579 | 10183 ft | 133 kts | 25° |
| 2026-04-19 06:38 | 40.77537 | -112.03040 | 10183 ft | 133 kts | 25° |
| 2026-04-19 06:38 | 40.78369 | -112.02502 | 10183 ft | 133 kts | 25° |
| 2026-04-19 06:38 | 40.79200 | -112.01964 | 10181 ft | 133 kts | 25° |
| 2026-04-19 06:38 | 40.80031 | -112.01427 | 10182 ft | 133 kts | 25° |
| 2026-04-19 06:39 | 40.80859 | -112.00891 | 10185 ft | 133 kts | 25° |
| 2026-04-19 06:39 | 40.81679 | -112.00360 | 10183 ft | 133 kts | 25° |
| 2026-04-19 06:39 | 40.82510 | -111.99822 | 10181 ft | 133 kts | 25° |
| 2026-04-19 06:39 | 40.83337 | -111.99286 | 10183 ft | 132 kts | 25° |
| 2026-04-19 06:40 | 40.84171 | -111.98770 | 10177 ft | 131 kts | 15° |
| 2026-04-19 06:40 | 40.85052 | -111.98749 | 10169 ft | 125 kts | 338° |
| 2026-04-19 06:40 | 40.85771 | -111.99300 | 10166 ft | 116 kts | 306° |
| 2026-04-19 06:40 | 40.86310 | -112.00105 | 10069 ft | 118 kts | 304° |
| 2026-04-19 06:41 | 40.86862 | -112.00914 | 9946 ft | 119 kts | 303° |
| 2026-04-19 06:41 | 40.87414 | -112.01731 | 9816 ft | 119 kts | 304° |
| 2026-04-19 06:41 | 40.87967 | -112.02554 | 9699 ft | 119 kts | 304° |
| 2026-04-19 06:41 | 40.88522 | -112.03381 | 9621 ft | 121 kts | 304° |
| 2026-04-19 06:42 | 40.89085 | -112.04219 | 9544 ft | 122 kts | 304° |
| 2026-04-19 06:42 | 40.89645 | -112.05052 | 9473 ft | 123 kts | 304° |
| 2026-04-19 06:42 | 40.90215 | -112.05899 | 9396 ft | 123 kts | 305° |
| 2026-04-19 06:42 | 40.90787 | -112.06750 | 9323 ft | 124 kts | 305° |
| 2026-04-19 06:43 | 40.91361 | -112.07603 | 9243 ft | 124 kts | 305° |
| 2026-04-19 06:43 | 40.91935 | -112.08458 | 9162 ft | 125 kts | 306° |
| 2026-04-19 06:43 | 40.92516 | -112.09324 | 9061 ft | 127 kts | 306° |
| 2026-04-19 06:43 | 40.93102 | -112.10196 | 8963 ft | 128 kts | 306° |
| 2026-04-19 06:44 | 40.93695 | -112.11078 | 8858 ft | 128 kts | 306° |
| 2026-04-19 06:44 | 40.94289 | -112.11963 | 8761 ft | 129 kts | 307° |
| 2026-04-19 06:44 | 40.94885 | -112.12852 | 8660 ft | 129 kts | 307° |
| 2026-04-19 06:44 | 40.95481 | -112.13742 | 8558 ft | 129 kts | 307° |
| 2026-04-19 06:45 | 40.96079 | -112.14634 | 8464 ft | 130 kts | 307° |
| 2026-04-19 06:45 | 40.96672 | -112.15518 | 8366 ft | 130 kts | 307° |
| 2026-04-19 06:45 | 40.97281 | -112.16426 | 8266 ft | 130 kts | 307° |
| 2026-04-19 06:45 | 40.97875 | -112.17314 | 8174 ft | 130 kts | 307° |
| 2026-04-19 06:46 | 40.98460 | -112.18187 | 8167 ft | 124 kts | 307° |
| 2026-04-19 06:46 | 40.99026 | -112.19033 | 8159 ft | 121 kts | 307° |
| 2026-04-19 06:46 | 40.99578 | -112.19860 | 8155 ft | 118 kts | 307° |
| 2026-04-19 06:46 | 41.00115 | -112.20671 | 8156 ft | 117 kts | 307° |
| 2026-04-19 06:47 | 41.00648 | -112.21480 | 8156 ft | 117 kts | 307° |
| 2026-04-19 06:47 | 41.01180 | -112.22293 | 8153 ft | 117 kts | 307° |
| 2026-04-19 06:47 | 41.01720 | -112.23099 | 8153 ft | 118 kts | 316° |
| 2026-04-19 06:47 | 41.02510 | -112.23265 | 8140 ft | 124 kts | 22° |
| 2026-04-19 06:48 | 41.03180 | -112.22533 | 8035 ft | 127 kts | 45° |
| 2026-04-19 06:48 | 41.03834 | -112.21725 | 7924 ft | 129 kts | 46° |
| 2026-04-19 06:48 | 41.04483 | -112.20900 | 7811 ft | 129 kts | 47° |
| 2026-04-19 06:48 | 41.04908 | -112.20342 | 7737 ft | 130 kts | 47° |
| 2026-04-19 06:49 | 41.05755 | -112.19227 | 7574 ft | 128 kts | 47° |
| 2026-04-19 06:49 | 41.06396 | -112.18389 | 7423 ft | 131 kts | 48° |
| 2026-04-19 06:49 | 41.07050 | -112.17529 | 7260 ft | 133 kts | 47° |
| 2026-04-19 06:49 | 41.07712 | -112.16663 | 7094 ft | 134 kts | 48° |
| 2026-04-19 06:50 | 41.08371 | -112.15792 | 6939 ft | 134 kts | 48° |
| 2026-04-19 06:50 | 41.08820 | -112.15210 | 6830 ft | 134 kts | 48° |
| 2026-04-19 06:50 | 41.09469 | -112.14356 | 6669 ft | 133 kts | 48° |
| 2026-04-19 06:50 | 41.10126 | -112.13490 | 6499 ft | 133 kts | 48° |
| 2026-04-19 06:51 | 41.10783 | -112.12630 | 6324 ft | 133 kts | 47° |
| 2026-04-19 06:51 | 41.11435 | -112.11773 | 6185 ft | 129 kts | 47° |
| 2026-04-19 06:51 | 41.12050 | -112.10968 | 6173 ft | 120 kts | 47° |
| 2026-04-19 06:51 | 41.12628 | -112.10209 | 6171 ft | 114 kts | 47° |
| 2026-04-19 06:52 | 41.13184 | -112.09480 | 6119 ft | 111 kts | 47° |
| 2026-04-19 06:52 | 41.13724 | -112.08770 | 5975 ft | 108 kts | 48° |
| 2026-04-19 06:52 | 41.14256 | -112.08070 | 5825 ft | 107 kts | 48° |
| 2026-04-19 06:52 | 41.14780 | -112.07381 | 5688 ft | 106 kts | 47° |
| 2026-04-19 06:53 | 41.15304 | -112.06691 | 5529 ft | 106 kts | 47° |
| 2026-04-19 06:53 | 41.15827 | -112.06003 | 5367 ft | 105 kts | 46° |
| 2026-04-19 06:53 | 41.16338 | -112.05329 | 5221 ft | 105 kts | 45° |
| 2026-04-19 06:53 | 41.16852 | -112.04652 | 5060 ft | 102 kts | 45° |
| 2026-04-19 06:54 | 41.17339 | -112.04008 | 4937 ft | 92 kts | 45° |
| 2026-04-19 06:54 | 41.17772 | -112.03438 | 4800 ft | 85 kts | 45° |
| 2026-04-19 06:54 | 41.18171 | -112.02908 | 4673 ft | 78 kts | 45° |
| 2026-04-19 06:54 | 41.18567 | -112.02395 | 4571 ft | 81 kts | 45° |
| 2026-04-19 06:55 | 41.18956 | -112.01881 | 4478 ft | 76 kts | 45° |
| 2026-04-19 06:55 | 41.19283 | -112.01447 | 4454 ft | 57 kts | 45° |
| 2026-04-19 06:55 | 41.19499 | -112.01158 | 4450 ft | 34 kts | 45° |
| 2026-04-19 06:55 | 41.19657 | -112.00964 | 4445 ft | 28 kts | 43° |
| 2026-04-19 06:56 | 41.19778 | -112.00804 | 4438 ft | 15 kts | 55° |
| 2026-04-19 06:56 | 41.19740 | -112.00733 | 4437 ft | 8 kts | 154° |
| 2026-04-19 06:56 | 41.19713 | -112.00716 | 4437 ft | 0 kts | 153° |